Kilgore, Nebraska
Current Conditions -  °F | °C
As of 10:52 PM on Thursday 27 Nov 2014 (Local Time) from KVTN Reporting Station
Clear Clear  
Wind Chill: 28°   Ceiling: Unl
Heat Index: 33°   Visibility: 10mi
Dew Point: 28°   Wind: 6mph
Humidity: 82%   Direction: 250°WSW
Pressure: 29.87"   Gusts: NA
Location:  42.94°N, 100.96°W
Report Text: KVTN 280552Z AUTO 25005KT 10SM CLR 01/M02 A2987 RMK AO2 SLP139 T00061022 10056 21006 400721067 58009
Loading
Personal Weather Stations






























Interactive Weather Map New forecast layout! Learn more

10-Day Weather Forecast

Advertisements
Track Severe Weather on mobile